This is the latest recevied weather packets stored in our database for station/object KC3UTO. If no packets are shown the sender has not sent any weather packets the latest 1 day(s).
| Time | Temp. | Humidity | Pressure | Rain* | Wind** | Luminosity | Snow |
|---|---|---|---|---|---|---|---|
| 1778083075 | 16.11° C | 92% | 1008.3 hPa | 2.29 mm | - | 234 W/m² | - |
| 1778081644 | 16.11° C | 91% | 1008.4 hPa | 2.29 mm | - | 95 W/m² | - |
| 1778081038 | 16.11° C | 91% | 1008.7 hPa | 1.78 mm | - | 81 W/m² | - |
| 1778080737 | 16.11° C | 90% | 1008.8 hPa | 2.29 mm | - | 92 W/m² | - |
| 1778080131 | 16.67° C | 90% | 1008.5 hPa | 1.78 mm | - | 90 W/m² | - |
| 1778079827 | 16.67° C | 90% | 1008.6 hPa | 1.78 mm | - | 113 W/m² | - |
| 1778079524 | 16.67° C | 90% | 1008.5 hPa | 1.27 mm | - | 150 W/m² | - |
| 1778079220 | 16.67° C | 90% | 1008.5 hPa | 1.27 mm | - | 175 W/m² | - |
| 1778078614 | 16.67° C | 89% | 1008.5 hPa | 3.56 mm | - | 159 W/m² | - |
| 1778078313 | 16.67° C | 88% | 1008.3 hPa | 3.05 mm | - | 107 W/m² | - |
| 1778077708 | 16.67° C | 86% | 1008.4 hPa | 3.56 mm | - | 62 W/m² | - |
| 1778075893 | 17.78° C | 79% | 1008.3 hPa | 0 mm | - | 97 W/m² | - |
| 1778074376 | 18.33° C | 78% | 1008.5 hPa | 0 mm | - | 343 W/m² | - |
| 1778073770 | 18.33° C | 76% | 1008.2 hPa | 0 mm | - | 101 W/m² | - |
| 1778073468 | 18.33° C | 75% | 1008.6 hPa | 0 mm | - | 84 W/m² | - |
| 1778071046 | 18.89° C | 71% | 1008.7 hPa | 0 mm | - | 104 W/m² | - |
| 1778070441 | 18.89° C | 70% | 1008.5 hPa | 0 mm | - | 150 W/m² | - |
| 1778068928 | 18.89° C | 69% | 1008.4 hPa | 0 mm | - | 147 W/m² | - |
| 1778068626 | 18.89° C | 70% | 1008.3 hPa | 0 mm | - | 133 W/m² | - |
| 1778067417 | 18.33° C | 70% | 1008.4 hPa | 0 mm | - | 93 W/m² | - |
| 1778067114 | 18.89° C | 70% | 1008.3 hPa | 0 mm | - | 47 W/m² | - |
| 1778066205 | 18.89° C | 69% | 1008.1 hPa | 0 mm | - | 55 W/m² | - |
| 1778065297 | 18.89° C | 69% | 1008.4 hPa | 0 mm | - | 32 W/m² | - |
| 1778064389 | 18.89° C | 69% | 1008 hPa | 0 mm | - | 49 W/m² | - |
| 1778064086 | 18.89° C | 69% | 1008.2 hPa | 0 mm | - | 51 W/m² | - |
* Rain latest hour (hover to see other rain measurements)
** Current wind speed in m/s (hover to see current wind gust speed)